createdAt,value
2023-03-10T00:00:13.963Z,8.82
2023-03-10T00:01:18.579Z,8.81
2023-03-10T00:02:20.847Z,8.83
2023-03-10T00:03:23.725Z,8.82
2023-03-10T00:04:25.642Z,8.81
2023-03-10T00:05:28.529Z,8.81
2023-03-10T00:06:33.581Z,8.81
2023-03-10T00:07:36.782Z,8.80
2023-03-10T00:08:39.210Z,8.80
2023-03-10T00:09:42.063Z,8.81
2023-03-10T00:10:43.888Z,8.81
2023-03-10T00:11:48.116Z,8.81
2023-03-10T00:12:50.052Z,8.81
2023-03-10T00:13:53.210Z,8.80
2023-03-10T00:14:56.444Z,8.81
2023-03-10T00:15:59.621Z,8.81
2023-03-10T00:17:01.452Z,8.80
2023-03-10T00:18:04.502Z,8.79
2023-03-10T00:19:06.599Z,8.78
2023-03-10T00:20:12.780Z,8.78
2023-03-10T00:21:15.687Z,8.79
2023-03-10T00:22:18.550Z,8.78
2023-03-10T00:23:21.581Z,8.78
2023-03-10T00:24:24.467Z,8.77
2023-03-10T00:25:26.542Z,8.77
2023-03-10T00:26:30.534Z,8.75
2023-03-10T00:27:33.906Z,8.76
2023-03-10T00:28:36.754Z,8.75
2023-03-10T00:29:38.804Z,8.74
2023-03-10T00:30:41.569Z,8.69
2023-03-10T00:31:43.846Z,8.67
2023-03-10T00:32:46.841Z,8.65
2023-03-10T00:33:49.297Z,8.61
2023-03-10T00:34:52.096Z,8.64
2023-03-10T00:36:06.180Z,8.60
2023-03-10T00:37:09.365Z,8.59
2023-03-10T00:38:11.212Z,8.60
2023-03-10T00:39:14.045Z,8.58
2023-03-10T00:40:17.041Z,8.59
2023-03-10T00:41:21.272Z,8.59
2023-03-10T00:42:24.517Z,8.58
2023-03-10T00:43:28.859Z,8.58
2023-03-10T00:44:31.672Z,8.58
2023-03-10T00:45:35.452Z,8.58
2023-03-10T00:46:39.477Z,8.58
2023-03-10T00:47:41.338Z,8.57
2023-03-10T00:48:44.955Z,8.57
2023-03-10T00:49:47.868Z,8.56
2023-03-10T00:50:50.711Z,8.57
2023-03-10T00:51:53.720Z,8.56
2023-03-10T00:52:55.601Z,8.58
2023-03-10T00:54:00.050Z,8.57
2023-03-10T00:55:01.928Z,8.60
2023-03-10T00:56:08.171Z,8.61
2023-03-10T00:57:10.409Z,8.57
2023-03-10T00:58:13.270Z,8.55
2023-03-10T00:59:17.691Z,8.61
2023-03-10T01:00:20.934Z,8.61
2023-03-10T01:01:26.151Z,8.60
2023-03-10T01:02:28.474Z,8.54
2023-03-10T01:03:34.354Z,8.57
2023-03-10T01:04:37.293Z,8.53
2023-03-10T01:05:39.887Z,8.54
2023-03-10T01:06:45.196Z,8.54
2023-03-10T01:07:47.129Z,8.54
2023-03-10T01:08:50.627Z,8.54
2023-03-10T01:09:52.497Z,8.52
2023-03-10T01:10:55.403Z,8.52
2023-03-10T01:11:57.411Z,8.52
2023-03-10T01:13:00.302Z,8.47
2023-03-10T01:14:05.348Z,8.45
2023-03-10T01:15:12.073Z,8.44
2023-03-10T01:16:14.168Z,8.45
2023-03-10T01:17:17.166Z,8.45
2023-03-10T01:18:20.048Z,8.46
2023-03-10T01:19:23.307Z,8.45
2023-03-10T01:20:25.217Z,8.46
2023-03-10T01:21:30.076Z,8.45
2023-03-10T01:22:31.989Z,8.45
2023-03-10T01:23:35.031Z,8.46
2023-03-10T01:24:37.896Z,8.44
2023-03-10T01:25:39.812Z,8.44
2023-03-10T01:26:42.789Z,8.51
2023-03-10T01:27:44.798Z,8.49
2023-03-10T01:28:48.114Z,8.48
2023-03-10T01:29:49.994Z,8.47
2023-03-10T01:30:54.605Z,8.48
2023-03-10T01:31:56.611Z,8.46
2023-03-10T01:32:59.511Z,8.47
2023-03-10T01:34:01.375Z,8.47
2023-03-10T01:35:05.281Z,8.44
2023-03-10T01:36:08.788Z,8.43
2023-03-10T01:37:11.764Z,8.42
2023-03-10T01:38:13.857Z,8.41
2023-03-10T01:39:16.763Z,8.40
2023-03-10T01:40:19.045Z,8.41
2023-03-10T01:41:22.005Z,8.40
2023-03-10T01:42:23.885Z,8.40
2023-03-10T01:43:31.998Z,8.38
2023-03-10T01:44:34.978Z,8.37
2023-03-10T01:46:28.929Z,8.37
2023-03-10T01:47:35.223Z,8.36
2023-03-10T01:48:39.027Z,8.36
2023-03-10T01:49:45.768Z,8.35
2023-03-10T01:50:51.564Z,8.34
2023-03-10T01:52:01.224Z,8.35
2023-03-10T01:53:03.825Z,8.34
2023-03-10T01:54:10.408Z,8.33
2023-03-10T01:55:16.725Z,8.33
2023-03-10T01:56:19.607Z,8.31
2023-03-10T01:57:25.821Z,8.31
2023-03-10T01:58:32.062Z,8.31
2023-03-10T01:59:35.582Z,8.30
2023-03-10T02:00:37.558Z,8.30
2023-03-10T02:01:40.682Z,8.29
2023-03-10T02:02:50.302Z,8.28
2023-03-10T02:03:59.208Z,8.28
2023-03-10T02:05:02.578Z,8.28
2023-03-10T02:06:12.658Z,8.28
2023-03-10T02:07:19.765Z,8.27
2023-03-10T02:08:24.032Z,8.27
2023-03-10T02:09:28.069Z,8.27
2023-03-10T02:10:30.213Z,8.28
2023-03-10T02:11:33.551Z,8.27
2023-03-10T02:12:35.474Z,8.27
2023-03-10T02:13:38.643Z,8.27
2023-03-10T02:14:41.385Z,8.27
2023-03-10T02:15:44.667Z,8.27
2023-03-10T02:16:46.690Z,8.27
2023-03-10T02:17:53.106Z,8.27
2023-03-10T02:18:55.130Z,8.27
2023-03-10T02:20:21.102Z,8.26
2023-03-10T02:21:34.102Z,8.27
2023-03-10T02:22:37.932Z,8.28
2023-03-10T02:23:58.813Z,8.27
2023-03-10T02:25:15.194Z,8.29
2023-03-10T02:26:26.902Z,8.29
2023-03-10T02:27:34.676Z,8.31
2023-03-10T02:28:36.558Z,8.32
2023-03-10T02:29:58.052Z,8.31
2023-03-10T02:31:03.152Z,8.32
2023-03-10T02:32:06.238Z,8.33
2023-03-10T02:33:13.118Z,8.33
2023-03-10T02:34:15.205Z,8.32
2023-03-10T02:35:18.945Z,8.32
2023-03-10T02:36:35.825Z,8.33
2023-03-10T02:37:39.740Z,8.32
2023-03-10T02:38:42.700Z,8.32
2023-03-10T02:39:45.231Z,8.32
2023-03-10T02:40:49.740Z,8.30
2023-03-10T02:41:59.179Z,8.29
2023-03-10T02:43:06.720Z,8.29
2023-03-10T02:44:12.947Z,8.26
2023-03-10T02:45:15.903Z,8.25
2023-03-10T02:46:18.472Z,8.25
2023-03-10T02:47:22.468Z,8.25
2023-03-10T02:48:28.663Z,8.24
2023-03-10T02:49:33.934Z,8.23
2023-03-10T02:50:38.761Z,8.23
2023-03-10T02:51:45.483Z,8.22
2023-03-10T02:52:53.271Z,8.23
2023-03-10T02:53:56.340Z,8.23
2023-03-10T02:54:59.786Z,8.21
2023-03-10T02:56:03.605Z,8.21
2023-03-10T02:57:07.836Z,8.20
2023-03-10T02:58:12.487Z,8.20
2023-03-10T02:59:15.026Z,8.19
2023-03-10T03:00:23.059Z,8.20
2023-03-10T03:01:26.255Z,8.19
2023-03-10T03:02:32.992Z,8.20
2023-03-10T03:03:35.306Z,8.19
2023-03-10T03:04:38.303Z,8.19
2023-03-10T03:05:40.748Z,8.21
2023-03-10T03:06:43.784Z,8.22
2023-03-10T03:07:45.655Z,8.22
2023-03-10T03:08:49.053Z,8.20
2023-03-10T03:09:55.169Z,8.18
2023-03-10T03:10:58.161Z,8.22
2023-03-10T03:12:01.547Z,8.23
2023-03-10T03:13:05.455Z,8.23
2023-03-10T03:14:09.050Z,8.22
2023-03-10T03:15:13.147Z,8.23
2023-03-10T03:16:15.123Z,8.24
2023-03-10T03:17:19.993Z,8.23
2023-03-10T03:18:22.114Z,8.24
2023-03-10T03:19:25.239Z,8.22
2023-03-10T03:20:29.516Z,8.21
2023-03-10T03:21:32.510Z,8.21
2023-03-10T03:22:34.706Z,8.22
2023-03-10T03:23:38.800Z,8.22
2023-03-10T03:24:41.959Z,8.23
2023-03-10T03:25:44.893Z,8.22
2023-03-10T03:26:50.151Z,8.22
2023-03-10T03:27:57.127Z,8.22
2023-03-10T03:28:59.135Z,8.22
2023-03-10T03:30:11.644Z,8.22
2023-03-10T03:31:18.794Z,8.22
2023-03-10T03:32:22.957Z,8.23
2023-03-10T03:33:24.853Z,8.22
2023-03-10T03:34:28.281Z,8.23
2023-03-10T03:35:36.064Z,8.24
2023-03-10T03:36:39.792Z,8.22
2023-03-10T03:37:44.054Z,8.22
2023-03-10T03:38:47.489Z,8.23
2023-03-10T03:39:51.396Z,8.22
2023-03-10T03:40:54.646Z,8.23
2023-03-10T03:41:57.434Z,8.13
2023-03-10T03:43:04.183Z,8.13
2023-03-10T03:44:06.093Z,8.12
2023-03-10T03:45:16.798Z,8.14
2023-03-10T03:46:18.722Z,8.15
2023-03-10T03:47:22.015Z,8.13
2023-03-10T03:48:24.093Z,8.15
2023-03-10T03:49:27.703Z,8.16
2023-03-10T03:50:30.156Z,8.16
2023-03-10T03:51:39.407Z,8.16
2023-03-10T03:52:42.183Z,8.18
2023-03-10T03:53:45.611Z,8.19
2023-03-10T03:54:47.942Z,8.21
2023-03-10T03:55:51.419Z,8.23
2023-03-10T03:56:56.502Z,8.22
2023-03-10T03:57:59.485Z,8.22
2023-03-10T03:59:01.391Z,8.23
2023-03-10T04:00:07.455Z,8.23
2023-03-10T04:01:16.992Z,8.24
2023-03-10T04:02:24.472Z,8.24
2023-03-10T04:03:27.833Z,8.25
2023-03-10T04:04:30.031Z,8.25
2023-03-10T04:05:33.108Z,8.26
2023-03-10T04:06:35.754Z,8.25
2023-03-10T04:07:40.011Z,8.27
2023-03-10T04:08:44.477Z,8.28
2023-03-10T04:09:47.315Z,8.28
2023-03-10T04:10:53.817Z,8.28
2023-03-10T04:11:57.802Z,8.28
2023-03-10T04:13:00.830Z,8.28
2023-03-10T04:14:03.076Z,8.27
2023-03-10T04:15:08.386Z,8.27
2023-03-10T04:16:10.512Z,8.27
2023-03-10T04:17:17.054Z,8.28
2023-03-10T04:18:19.204Z,8.27
2023-03-10T04:19:22.110Z,8.28
2023-03-10T04:20:27.538Z,8.27
2023-03-10T04:21:30.670Z,8.27
2023-03-10T04:22:34.165Z,8.27
2023-03-10T04:23:37.182Z,8.26
2023-03-10T04:24:39.749Z,8.26
2023-03-10T04:25:43.432Z,8.26
2023-03-10T04:26:47.567Z,8.24
2023-03-10T04:27:50.596Z,8.24
2023-03-10T04:28:52.967Z,8.24
2023-03-10T04:29:57.370Z,8.25
2023-03-10T04:30:59.595Z,8.25
2023-03-10T04:32:07.105Z,8.24
2023-03-10T04:33:16.383Z,8.24
2023-03-10T04:34:19.100Z,8.24
2023-03-10T04:35:21.990Z,8.25
2023-03-10T04:36:23.924Z,8.25
2023-03-10T04:37:31.701Z,8.23
2023-03-10T04:38:34.783Z,8.25
2023-03-10T04:39:37.211Z,8.26
2023-03-10T04:40:41.163Z,8.27
2023-03-10T04:41:43.358Z,8.28
2023-03-10T04:42:46.763Z,8.29
2023-03-10T04:43:49.367Z,8.29
2023-03-10T04:44:54.140Z,8.28
2023-03-10T04:45:56.725Z,8.31
2023-03-10T04:47:00.520Z,8.32
2023-03-10T04:48:03.053Z,8.33
2023-03-10T04:49:08.156Z,8.35
2023-03-10T04:50:12.837Z,8.37
2023-03-10T04:51:14.823Z,8.37
2023-03-10T04:52:24.644Z,8.39
2023-03-10T04:53:26.960Z,8.38
2023-03-10T04:54:29.862Z,8.40
2023-03-10T04:55:33.293Z,8.39
2023-03-10T04:56:37.284Z,8.39
2023-03-10T04:57:40.947Z,8.39
2023-03-10T04:58:43.238Z,8.39
2023-03-10T04:59:46.714Z,8.39
2023-03-10T05:01:02.366Z,8.39
2023-03-10T05:02:06.903Z,8.38
2023-03-10T05:03:08.963Z,8.39
2023-03-10T05:04:13.315Z,8.39
2023-03-10T05:05:15.304Z,8.39
2023-03-10T05:06:22.980Z,8.38
2023-03-10T05:07:34.595Z,8.38
2023-03-10T05:08:37.091Z,8.38
2023-03-10T05:09:40.088Z,8.39
2023-03-10T05:10:43.824Z,8.40
2023-03-10T05:11:46.817Z,8.39
2023-03-10T05:12:49.050Z,8.38
2023-03-10T05:13:52.182Z,8.39
2023-03-10T05:14:54.118Z,8.40
2023-03-10T05:15:57.038Z,8.40
2023-03-10T05:16:58.965Z,8.41
2023-03-10T05:18:01.937Z,8.42
2023-03-10T05:19:03.950Z,8.41
2023-03-10T05:20:11.532Z,8.41
2023-03-10T05:21:14.134Z,8.42
2023-03-10T05:22:18.169Z,8.41
2023-03-10T05:23:20.037Z,8.41
2023-03-10T05:24:23.037Z,8.42
2023-03-10T05:25:25.243Z,8.42
2023-03-10T05:26:29.101Z,8.43
2023-03-10T05:27:32.593Z,8.42
2023-03-10T05:28:36.442Z,8.42
2023-03-10T05:29:39.174Z,8.42
2023-03-10T05:30:49.143Z,8.43
2023-03-10T05:31:52.540Z,8.43
2023-03-10T05:33:00.832Z,8.44
2023-03-10T05:34:03.811Z,8.43
2023-03-10T05:35:06.612Z,8.43
2023-03-10T05:36:14.600Z,8.44
2023-03-10T05:37:19.047Z,8.43
2023-03-10T05:38:21.904Z,8.43
2023-03-10T05:39:23.896Z,8.44
2023-03-10T05:40:30.187Z,8.46
2023-03-10T05:41:32.339Z,8.46
2023-03-10T05:42:35.758Z,8.46
2023-03-10T05:43:39.819Z,8.45
2023-03-10T05:44:44.211Z,8.46
2023-03-10T05:45:54.507Z,8.46
2023-03-10T05:46:57.489Z,8.47
2023-03-10T05:47:59.428Z,8.48
2023-03-10T05:49:02.325Z,8.48
2023-03-10T05:50:05.750Z,8.49
2023-03-10T05:51:13.462Z,8.48
2023-03-10T05:52:15.483Z,8.49
2023-03-10T05:53:19.947Z,8.48
2023-03-10T05:54:22.201Z,8.49
2023-03-10T05:55:25.352Z,8.49
2023-03-10T05:56:27.272Z,8.50
2023-03-10T05:57:34.352Z,8.50
2023-03-10T05:58:36.800Z,8.50
2023-03-10T05:59:39.770Z,8.51
2023-03-10T06:00:42.368Z,8.50
2023-03-10T06:01:45.608Z,8.51
2023-03-10T06:02:47.790Z,8.50
2023-03-10T06:03:50.974Z,8.51
2023-03-10T06:04:53.984Z,8.51
2023-03-10T06:05:56.037Z,8.51
2023-03-10T06:07:01.526Z,8.51
2023-03-10T06:08:04.953Z,8.50
2023-03-10T06:09:07.647Z,8.49
2023-03-10T06:10:11.742Z,8.50
2023-03-10T06:11:13.648Z,8.51
2023-03-10T06:12:16.590Z,8.52
2023-03-10T06:13:20.060Z,8.52
2023-03-10T06:14:26.324Z,8.52
2023-03-10T06:15:28.400Z,8.53
2023-03-10T06:16:31.577Z,8.52
2023-03-10T06:17:33.596Z,8.53
2023-03-10T06:18:36.673Z,8.53
2023-03-10T06:19:38.549Z,8.54
2023-03-10T06:20:41.422Z,8.55
2023-03-10T06:21:43.348Z,8.55
2023-03-10T06:22:47.612Z,8.55
2023-03-10T06:23:51.047Z,8.55
2023-03-10T06:24:53.983Z,8.56
2023-03-10T06:25:57.254Z,8.56
2023-03-10T06:27:00.294Z,8.56
2023-03-10T06:28:02.159Z,8.57
2023-03-10T06:29:05.313Z,8.56
2023-03-10T06:30:08.533Z,8.58
2023-03-10T06:31:15.495Z,8.57
2023-03-10T06:32:18.920Z,8.58
2023-03-10T06:33:20.842Z,8.59
2023-03-10T06:34:23.922Z,8.59
2023-03-10T06:35:26.001Z,8.58
2023-03-10T06:36:31.829Z,8.59
2023-03-10T06:37:37.473Z,8.59
2023-03-10T06:38:41.508Z,8.60
2023-03-10T06:39:44.498Z,8.60
2023-03-10T06:40:47.508Z,8.60
2023-03-10T06:41:50.449Z,8.61
2023-03-10T06:42:53.280Z,8.61
2023-03-10T06:43:55.195Z,8.63
2023-03-10T06:44:58.206Z,8.63
2023-03-10T06:46:03.851Z,8.61
2023-03-10T06:47:07.277Z,8.61
2023-03-10T06:48:09.226Z,8.58
2023-03-10T06:49:16.904Z,8.57
2023-03-10T06:50:18.953Z,8.58
2023-03-10T06:51:22.969Z,8.58
2023-03-10T06:52:24.918Z,8.63
2023-03-10T06:53:28.147Z,8.64
2023-03-10T06:54:31.443Z,8.65
2023-03-10T06:55:34.265Z,8.66
2023-03-10T06:56:36.126Z,8.66
2023-03-10T06:57:38.982Z,8.66
2023-03-10T06:58:41.606Z,8.67
2023-03-10T06:59:44.456Z,8.68
2023-03-10T07:00:46.335Z,8.67
2023-03-10T07:01:49.367Z,8.68
2023-03-10T07:02:52.292Z,8.68
2023-03-10T07:03:54.919Z,8.69
2023-03-10T07:04:58.112Z,8.70
2023-03-10T07:06:01.003Z,8.70
2023-03-10T07:07:03.949Z,8.71
2023-03-10T07:08:06.222Z,8.70
2023-03-10T07:09:09.111Z,8.72
2023-03-10T07:10:12.747Z,8.72
2023-03-10T07:11:16.303Z,8.77
2023-03-10T07:12:18.315Z,8.96
2023-03-10T07:13:22.008Z,9.05
2023-03-10T07:14:23.906Z,9.09
2023-03-10T07:15:27.270Z,9.09
2023-03-10T07:16:30.298Z,9.08
2023-03-10T07:17:32.205Z,9.06
2023-03-10T07:18:35.899Z,9.02
2023-03-10T07:19:37.809Z,8.99
2023-03-10T07:20:41.623Z,8.98
2023-03-10T07:21:43.503Z,8.98
2023-03-10T07:22:47.241Z,8.95
2023-03-10T07:23:50.339Z,8.94
2023-03-10T07:24:55.550Z,8.92
2023-03-10T07:25:58.941Z,8.92
2023-03-10T07:27:02.611Z,8.91
2023-03-10T07:28:05.835Z,8.89
2023-03-10T07:29:08.795Z,8.90
2023-03-10T07:30:12.902Z,8.90
2023-03-10T07:31:17.869Z,8.89
2023-03-10T07:32:20.820Z,8.89
2023-03-10T07:33:22.960Z,8.90
2023-03-10T07:34:25.881Z,8.89
2023-03-10T07:35:28.002Z,8.89
2023-03-10T07:36:31.037Z,8.88
2023-03-10T07:37:32.924Z,8.89
2023-03-10T07:38:36.411Z,8.90
2023-03-10T07:39:38.285Z,8.89
2023-03-10T07:40:41.249Z,8.89
2023-03-10T07:41:44.565Z,8.90
2023-03-10T07:42:47.594Z,8.90
2023-03-10T07:43:52.879Z,8.88
2023-03-10T07:44:55.884Z,8.87
2023-03-10T07:45:57.856Z,8.89
2023-03-10T07:47:00.790Z,8.88
2023-03-10T07:48:03.124Z,8.88
2023-03-10T07:49:06.807Z,8.90
2023-03-10T07:50:10.060Z,8.89
2023-03-10T07:51:13.251Z,8.86
2023-03-10T07:52:15.552Z,8.86
2023-03-10T07:53:18.448Z,8.86
2023-03-10T07:54:21.454Z,8.86
2023-03-10T07:55:23.563Z,8.86
2023-03-10T07:56:26.830Z,8.89
2023-03-10T07:57:31.269Z,8.91
2023-03-10T07:58:34.797Z,8.90
2023-03-10T07:59:39.247Z,8.91
2023-03-10T08:00:42.180Z,8.93
2023-03-10T08:01:44.053Z,8.93
2023-03-10T08:02:46.959Z,8.93
2023-03-10T08:03:49.341Z,8.91
2023-03-10T08:04:52.596Z,8.92
2023-03-10T08:05:55.335Z,8.92
2023-03-10T08:06:59.329Z,8.94
2023-03-10T08:08:01.288Z,8.98
2023-03-10T08:09:04.385Z,9.00
2023-03-10T08:10:07.490Z,9.02
2023-03-10T08:11:10.840Z,9.06
2023-03-10T08:12:14.282Z,8.98
2023-03-10T08:13:17.609Z,9.03
2023-03-10T08:14:23.949Z,9.07
2023-03-10T08:15:26.416Z,9.10
2023-03-10T08:16:29.495Z,9.12
2023-03-10T08:17:33.367Z,9.13
2023-03-10T08:18:36.700Z,9.14
2023-03-10T08:19:39.377Z,9.13
2023-03-10T08:20:42.310Z,9.14
2023-03-10T08:21:44.777Z,9.16
2023-03-10T08:22:49.084Z,9.15
2023-03-10T08:23:53.258Z,9.17
2023-03-10T08:24:57.279Z,9.17
2023-03-10T08:26:08.827Z,9.17
2023-03-10T08:27:12.746Z,9.18
2023-03-10T08:28:15.901Z,9.20
2023-03-10T08:29:20.692Z,9.21
2023-03-10T08:30:22.637Z,9.23
2023-03-10T08:31:25.673Z,9.24
2023-03-10T08:32:28.794Z,9.24
2023-03-10T08:33:30.875Z,9.26
2023-03-10T08:34:34.782Z,9.25
2023-03-10T08:35:39.346Z,9.25
2023-03-10T08:36:43.899Z,9.25
2023-03-10T08:37:46.429Z,9.28
2023-03-10T08:38:50.390Z,9.32
2023-03-10T08:39:53.961Z,9.35
2023-03-10T08:40:56.795Z,9.38
2023-03-10T08:41:59.929Z,9.42
2023-03-10T08:43:01.835Z,9.47
2023-03-10T08:44:06.342Z,9.51
2023-03-10T08:45:12.474Z,9.54
2023-03-10T08:46:14.631Z,9.59
2023-03-10T08:47:17.570Z,9.63
2023-03-10T08:48:19.485Z,9.69
2023-03-10T08:49:23.346Z,9.74
2023-03-10T08:50:25.190Z,9.77
2023-03-10T08:51:29.439Z,9.80
2023-03-10T08:52:31.344Z,9.81
2023-03-10T08:53:35.994Z,9.82
2023-03-10T08:54:38.925Z,9.83
2023-03-10T08:55:41.537Z,9.88
2023-03-10T08:56:44.691Z,9.92
2023-03-10T08:57:46.609Z,9.95
2023-03-10T08:58:49.721Z,9.98
2023-03-10T08:59:51.631Z,9.97
2023-03-10T09:00:55.939Z,9.97
2023-03-10T09:01:58.908Z,9.96
2023-03-10T09:03:00.882Z,9.96
2023-03-10T09:04:05.865Z,9.95
2023-03-10T09:05:08.382Z,9.97
2023-03-10T09:06:11.310Z,9.98
2023-03-10T09:07:14.217Z,10.00
2023-03-10T09:08:16.597Z,10.03
2023-03-10T09:09:19.789Z,10.03
2023-03-10T09:10:22.003Z,10.03
2023-03-10T09:11:28.140Z,10.02
2023-03-10T09:12:35.074Z,10.00
2023-03-10T09:13:39.831Z,10.00
2023-03-10T09:14:42.095Z,9.98
2023-03-10T09:15:45.006Z,9.97
2023-03-10T09:16:48.429Z,9.97
2023-03-10T09:17:51.350Z,9.97
2023-03-10T09:18:53.269Z,9.96
2023-03-10T09:19:56.317Z,9.94
2023-03-10T09:20:58.243Z,9.95
2023-03-10T09:22:01.472Z,9.95
2023-03-10T09:23:05.043Z,9.93
2023-03-10T09:24:07.324Z,9.94
2023-03-10T09:25:11.473Z,9.95
2023-03-10T09:26:14.113Z,9.94
2023-03-10T09:27:18.492Z,9.93
2023-03-10T09:28:20.453Z,9.93
2023-03-10T09:29:41.757Z,9.93
2023-03-10T09:30:45.826Z,9.94
2023-03-10T09:31:50.168Z,9.94
2023-03-10T09:32:52.387Z,9.92
2023-03-10T09:33:56.453Z,9.89
2023-03-10T09:34:58.401Z,9.88
2023-03-10T09:36:07.417Z,9.87
2023-03-10T09:37:10.021Z,9.82
2023-03-10T09:38:14.571Z,9.81
2023-03-10T09:39:17.757Z,9.79
2023-03-10T09:40:21.685Z,9.78
2023-03-10T09:41:40.264Z,9.77
2023-03-10T09:42:44.657Z,9.79
2023-03-10T09:43:56.083Z,9.81
2023-03-10T09:45:10.025Z,9.81
2023-03-10T09:46:21.761Z,9.81
2023-03-10T09:47:29.406Z,9.80
2023-03-10T09:48:51.392Z,9.78
2023-03-10T09:50:11.460Z,9.79
2023-03-10T09:51:17.996Z,9.82
2023-03-10T09:52:27.474Z,9.75
2023-03-10T09:53:49.732Z,9.72
2023-03-10T09:54:59.755Z,9.73
2023-03-10T09:56:05.948Z,9.73
2023-03-10T09:57:16.525Z,9.69
2023-03-10T09:58:29.916Z,9.69
2023-03-10T09:59:38.000Z,9.66
2023-03-10T10:00:44.429Z,9.61
2023-03-10T10:01:49.263Z,9.59
2023-03-10T10:03:02.044Z,9.59
2023-03-10T10:04:09.113Z,9.58
2023-03-10T10:05:18.541Z,9.52
2023-03-10T10:06:28.150Z,9.52
2023-03-10T10:07:42.971Z,9.50
2023-03-10T10:09:03.575Z,9.48
2023-03-10T10:10:15.250Z,9.47
2023-03-10T10:11:18.261Z,9.42
2023-03-10T10:12:23.959Z,9.42
2023-03-10T10:13:30.491Z,9.43
2023-03-10T10:14:33.549Z,9.42
2023-03-10T10:15:38.119Z,9.43
2023-03-10T10:16:48.264Z,9.42
2023-03-10T10:18:18.109Z,9.38
2023-03-10T10:19:24.158Z,9.36
2023-03-10T10:20:32.248Z,9.35
2023-03-10T10:21:43.220Z,9.35
2023-03-10T10:22:45.687Z,9.31
2023-03-10T10:23:51.175Z,9.34
2023-03-10T10:25:11.367Z,9.35
2023-03-10T10:26:16.894Z,9.31
2023-03-10T10:27:21.454Z,9.26
2023-03-10T10:28:34.001Z,9.26
2023-03-10T10:29:42.268Z,9.24
2023-03-10T10:30:44.639Z,9.23
2023-03-10T10:32:04.550Z,9.23
2023-03-10T10:33:10.404Z,9.19
2023-03-10T10:34:21.602Z,9.14
2023-03-10T10:35:25.206Z,9.08
2023-03-10T10:36:30.835Z,9.07
2023-03-10T10:37:38.284Z,9.03
2023-03-10T10:38:50.880Z,9.03
2023-03-10T10:39:56.883Z,9.03
2023-03-10T10:41:03.912Z,9.01
2023-03-10T10:42:19.794Z,9.05
2023-03-10T10:43:23.170Z,9.04
2023-03-10T10:44:26.042Z,9.02
2023-03-10T10:45:33.377Z,9.02
2023-03-10T10:46:35.898Z,9.01
2023-03-10T10:47:49.190Z,9.02
2023-03-10T10:49:04.523Z,9.03
2023-03-10T10:50:18.867Z,9.03
2023-03-10T10:51:28.774Z,9.05
2023-03-10T10:52:33.535Z,9.03
2023-03-10T10:53:40.534Z,9.06
2023-03-10T10:54:44.051Z,9.13
2023-03-10T10:55:49.338Z,9.18
2023-03-10T10:56:53.459Z,9.20
2023-03-10T10:58:01.332Z,9.14
2023-03-10T10:59:07.401Z,9.15
2023-03-10T11:00:18.587Z,9.14
2023-03-10T11:01:21.609Z,9.17
2023-03-10T11:02:31.131Z,9.18
2023-03-10T11:03:36.882Z,9.18
2023-03-10T11:04:45.130Z,9.18
2023-03-10T11:05:48.424Z,9.20
2023-03-10T11:06:52.466Z,9.23
2023-03-10T11:07:54.411Z,9.27
2023-03-10T11:09:08.725Z,9.27
2023-03-10T11:10:14.386Z,9.26
2023-03-10T11:11:29.477Z,9.27
2023-03-10T11:12:36.346Z,9.29
2023-03-10T11:13:55.857Z,9.33
2023-03-10T11:15:12.313Z,9.35
2023-03-10T11:16:18.685Z,9.35
2023-03-10T11:17:28.759Z,9.38
2023-03-10T11:18:36.234Z,9.39
2023-03-10T11:19:55.156Z,9.47
2023-03-10T11:21:05.273Z,9.45
2023-03-10T11:22:23.623Z,9.44
2023-03-10T11:23:34.707Z,9.45
2023-03-10T11:24:47.712Z,9.47
2023-03-10T11:25:55.616Z,9.49
2023-03-10T11:27:04.251Z,9.54
2023-03-10T11:28:34.380Z,9.57
2023-03-10T11:30:00.574Z,9.61
2023-03-10T11:31:15.185Z,9.65
2023-03-10T11:32:27.059Z,9.68
2023-03-10T11:33:36.218Z,9.68
2023-03-10T11:34:43.491Z,9.72
2023-03-10T11:35:51.793Z,9.73
2023-03-10T11:37:06.416Z,9.76
2023-03-10T11:38:32.404Z,9.77
2023-03-10T11:39:44.048Z,9.80
2023-03-10T11:40:49.596Z,9.82
2023-03-10T11:41:59.787Z,9.86
2023-03-10T11:43:09.080Z,9.88
2023-03-10T11:44:20.758Z,9.92
2023-03-10T11:45:28.999Z,9.96
2023-03-10T11:46:39.507Z,9.99
2023-03-10T11:47:51.247Z,9.95
2023-03-10T11:49:06.901Z,10.00
2023-03-10T11:50:19.557Z,10.03
2023-03-10T11:51:29.763Z,10.07
2023-03-10T11:52:33.222Z,10.12
2023-03-10T11:53:41.865Z,10.12
2023-03-10T11:54:49.718Z,10.10
2023-03-10T11:55:53.870Z,10.12
2023-03-10T11:56:58.579Z,10.10
2023-03-10T11:58:05.126Z,10.14
2023-03-10T11:59:14.378Z,10.14
2023-03-10T12:00:26.318Z,10.19
2023-03-10T12:01:34.013Z,10.21
2023-03-10T12:02:45.562Z,10.22
2023-03-10T12:03:56.841Z,10.26
2023-03-10T12:05:06.800Z,10.31
2023-03-10T12:06:13.027Z,10.30
2023-03-10T12:07:22.738Z,10.29
2023-03-10T12:08:28.477Z,10.26
2023-03-10T12:09:39.684Z,10.23
2023-03-10T12:10:42.273Z,10.24
2023-03-10T12:11:45.971Z,10.25
2023-03-10T12:12:49.839Z,10.27
2023-03-10T12:13:58.701Z,10.40
2023-03-10T12:15:05.819Z,10.40
2023-03-10T12:16:14.295Z,10.42
2023-03-10T12:17:18.571Z,10.43
2023-03-10T12:18:20.616Z,10.32
2023-03-10T12:19:23.542Z,10.29
2023-03-10T12:20:28.952Z,10.28
2023-03-10T12:21:32.864Z,10.26
2023-03-10T12:22:39.815Z,10.26
2023-03-10T12:23:43.914Z,10.29
2023-03-10T12:24:48.261Z,10.30
2023-03-10T12:25:51.376Z,10.30
2023-03-10T12:27:03.411Z,10.29
2023-03-10T12:28:14.639Z,10.31
2023-03-10T12:29:35.940Z,10.33
2023-03-10T12:30:46.682Z,10.32
2023-03-10T12:31:51.870Z,10.29
2023-03-10T12:32:53.844Z,10.28
2023-03-10T12:34:14.751Z,10.29
2023-03-10T12:35:40.230Z,10.29
2023-03-10T12:36:46.333Z,10.25
2023-03-10T12:37:49.626Z,10.26
2023-03-10T12:38:53.900Z,10.27
2023-03-10T12:39:55.826Z,10.29
2023-03-10T12:40:59.266Z,10.29
2023-03-10T12:42:03.590Z,10.25
2023-03-10T12:43:35.153Z,10.23
2023-03-10T12:44:48.619Z,10.27
2023-03-10T12:45:51.002Z,10.25
2023-03-10T12:46:59.810Z,10.22
2023-03-10T12:48:10.366Z,10.23
2023-03-10T12:49:25.731Z,10.24
2023-03-10T12:50:37.055Z,10.25
2023-03-10T12:51:42.837Z,10.24
2023-03-10T12:52:55.312Z,10.26
2023-03-10T12:54:02.686Z,10.23
2023-03-10T12:55:17.723Z,10.24
2023-03-10T12:56:23.861Z,10.22
2023-03-10T12:57:32.306Z,10.24
2023-03-10T12:58:38.285Z,10.22
2023-03-10T12:59:45.555Z,10.26
2023-03-10T13:00:51.487Z,10.25
2023-03-10T13:01:59.720Z,10.25
2023-03-10T13:03:08.556Z,10.25
2023-03-10T13:04:16.071Z,10.28
2023-03-10T13:05:21.979Z,10.29
2023-03-10T13:06:30.617Z,10.28
2023-03-10T13:07:34.050Z,10.30
2023-03-10T13:08:47.201Z,10.29
2023-03-10T13:09:50.937Z,10.29
2023-03-10T13:10:56.590Z,10.29
2023-03-10T13:12:05.210Z,10.28
2023-03-10T13:13:10.175Z,10.27
2023-03-10T13:14:15.591Z,10.28
2023-03-10T13:15:24.776Z,10.31
2023-03-10T13:16:28.004Z,10.31
2023-03-10T13:17:32.528Z,10.34
2023-03-10T13:18:36.754Z,10.33
2023-03-10T13:19:39.793Z,10.36
2023-03-10T13:20:43.129Z,10.39
2023-03-10T13:21:51.967Z,10.38
2023-03-10T13:22:57.375Z,10.42
2023-03-10T13:24:03.377Z,10.38
2023-03-10T13:25:10.308Z,10.39
2023-03-10T13:26:17.074Z,10.38
2023-03-10T13:27:24.010Z,10.35
2023-03-10T13:28:30.722Z,10.35
2023-03-10T13:29:34.937Z,10.34
2023-03-10T13:30:37.967Z,10.33
2023-03-10T13:31:41.496Z,10.33
2023-03-10T13:32:53.861Z,10.32
2023-03-10T13:33:58.063Z,10.28
2023-03-10T13:35:14.678Z,10.30
2023-03-10T13:36:38.925Z,10.27
2023-03-10T13:37:41.926Z,10.27
2023-03-10T13:38:43.959Z,10.25
2023-03-10T13:39:50.005Z,10.25
2023-03-10T13:41:00.269Z,10.22
2023-03-10T13:42:05.259Z,10.21
2023-03-10T13:43:19.812Z,10.23
2023-03-10T13:44:25.189Z,10.25
2023-03-10T13:45:33.973Z,10.25
2023-03-10T13:46:37.135Z,10.25
2023-03-10T13:47:42.767Z,10.28
2023-03-10T13:48:47.942Z,10.28
2023-03-10T13:49:53.206Z,10.26
2023-03-10T13:51:16.695Z,10.26
2023-03-10T13:52:21.711Z,10.25
2023-03-10T13:53:25.745Z,10.23
2023-03-10T13:54:31.081Z,10.22
2023-03-10T13:55:40.607Z,10.21
2023-03-10T13:56:45.065Z,10.21
2023-03-10T13:57:49.275Z,10.18
2023-03-10T13:58:53.376Z,10.17
2023-03-10T13:59:58.084Z,10.15
2023-03-10T14:01:01.083Z,10.14
2023-03-10T14:02:05.260Z,10.11
2023-03-10T14:03:09.407Z,10.09
2023-03-10T14:04:18.485Z,10.07
2023-03-10T14:05:43.707Z,10.06
2023-03-10T14:06:46.780Z,10.05
2023-03-10T14:08:00.249Z,10.01
2023-03-10T14:09:15.044Z,10.01
2023-03-10T14:10:20.048Z,10.02
2023-03-10T14:11:35.764Z,10.04
2023-03-10T14:12:39.710Z,10.06
2023-03-10T14:13:44.794Z,10.07
2023-03-10T14:14:47.729Z,10.04
2023-03-10T14:15:54.128Z,10.06
2023-03-10T14:16:59.262Z,10.08
2023-03-10T14:18:18.852Z,10.09
2023-03-10T14:19:50.906Z,10.08
2023-03-10T14:20:52.823Z,10.09
2023-03-10T14:22:01.200Z,10.09
2023-03-10T14:23:26.593Z,10.09
2023-03-10T14:24:29.686Z,10.14
2023-03-10T14:25:32.594Z,10.08
2023-03-10T14:26:37.932Z,10.05